createdAt,value
2023-05-18T00:00:19.399Z,84.40
2023-05-18T00:04:24.083Z,84.90
2023-05-18T00:08:27.601Z,87.34
2023-05-18T00:12:30.421Z,86.38
2023-05-18T00:16:34.525Z,89.47
2023-05-18T00:20:37.654Z,91.08
2023-05-18T00:24:40.382Z,89.22
2023-05-18T00:28:43.065Z,87.85
2023-05-18T00:32:47.162Z,89.85
2023-05-18T00:36:49.794Z,86.65
2023-05-18T00:40:52.456Z,89.60
2023-05-18T00:44:55.152Z,91.49
2023-05-18T00:49:01.494Z,91.25
2023-05-18T00:53:04.165Z,90.98
2023-05-18T00:57:07.540Z,92.64
2023-05-18T01:01:10.554Z,91.53
2023-05-18T01:05:14.787Z,93.60
2023-05-18T01:09:17.867Z,91.12
2023-05-18T01:13:26.369Z,91.46
2023-05-18T01:17:37.720Z,92.60
2023-05-18T01:21:55.764Z,94.16
2023-05-18T01:26:16.406Z,95.23
2023-05-18T01:30:19.498Z,94.45
2023-05-18T01:34:22.245Z,96.02
2023-05-18T01:38:26.078Z,95.71
2023-05-18T01:42:31.017Z,94.10
2023-05-18T01:46:37.700Z,95.21
2023-05-18T01:50:43.413Z,90.14
2023-05-18T01:54:47.331Z,92.54
2023-05-18T01:58:51.484Z,89.74
2023-05-18T02:02:54.231Z,91.50
2023-05-18T02:06:57.408Z,92.55
2023-05-18T02:11:00.423Z,92.34
2023-05-18T02:15:05.686Z,89.67
2023-05-18T02:19:08.489Z,92.38
2023-05-18T02:23:11.159Z,88.81
2023-05-18T02:27:15.197Z,90.54
2023-05-18T02:31:19.101Z,91.08
2023-05-18T02:35:21.843Z,89.18
2023-05-18T02:39:24.507Z,90.68
2023-05-18T02:43:27.466Z,91.41
2023-05-18T02:47:31.536Z,89.66
2023-05-18T02:51:34.283Z,89.46
2023-05-18T02:55:37.726Z,90.39
2023-05-18T02:59:40.462Z,88.72
2023-05-18T03:03:44.596Z,90.93
2023-05-18T03:07:50.966Z,87.01
2023-05-18T03:11:53.910Z,89.80
2023-05-18T03:15:57.717Z,90.72
2023-05-18T03:20:04.586Z,90.20
2023-05-18T03:24:07.405Z,91.14
2023-05-18T03:28:10.029Z,87.15
2023-05-18T03:32:12.653Z,87.01
2023-05-18T03:36:16.866Z,90.59
2023-05-18T03:40:20.835Z,91.42
2023-05-18T03:44:23.448Z,88.56
2023-05-18T03:48:26.720Z,89.90
2023-05-18T03:52:30.884Z,88.93
2023-05-18T03:56:33.550Z,91.39
2023-05-18T04:00:37.006Z,91.99
2023-05-18T04:04:42.023Z,90.59
2023-05-18T04:08:46.155Z,89.71
2023-05-18T04:12:48.843Z,90.80
2023-05-18T04:16:51.904Z,88.23
2023-05-18T04:20:55.272Z,90.00
2023-05-18T04:25:01.805Z,88.34
2023-05-18T04:29:04.620Z,89.45
2023-05-18T04:33:08.682Z,88.38
2023-05-18T04:37:12.475Z,85.72
2023-05-18T04:41:20.396Z,85.95
2023-05-18T04:45:26.159Z,84.27
2023-05-18T04:49:29.108Z,84.41
2023-05-18T04:53:33.371Z,85.36
2023-05-18T04:57:37.606Z,83.42
2023-05-18T05:01:40.354Z,86.20
2023-05-18T05:05:43.039Z,87.15
2023-05-18T05:09:45.737Z,81.84
2023-05-18T05:13:49.745Z,83.88
2023-05-18T05:17:52.524Z,64.86
2023-05-18T05:21:55.183Z,52.46
2023-05-18T05:25:57.892Z,45.17
2023-05-18T05:30:02.010Z,46.00
2023-05-18T05:34:04.747Z,38.99
2023-05-18T05:38:07.592Z,36.13
2023-05-18T05:42:10.306Z,42.44
2023-05-18T05:46:14.341Z,40.33
2023-05-18T05:50:17.209Z,40.38
2023-05-18T05:54:19.950Z,45.11
2023-05-18T05:58:22.622Z,36.08
2023-05-18T06:02:26.774Z,39.44
2023-05-18T06:06:29.612Z,38.88
2023-05-18T06:10:32.324Z,35.44
2023-05-18T06:14:35.089Z,38.60
2023-05-18T06:18:39.458Z,37.56
2023-05-18T06:22:42.317Z,35.79
2023-05-18T06:26:45.195Z,42.25
2023-05-18T06:30:47.875Z,52.12
2023-05-18T06:34:51.897Z,52.54
2023-05-18T06:38:54.566Z,53.63
2023-05-18T06:42:57.245Z,54.10
2023-05-18T06:46:59.946Z,54.35
2023-05-18T06:51:04.680Z,49.37
2023-05-18T06:55:09.129Z,53.39
2023-05-18T06:59:11.757Z,52.52
2023-05-18T07:03:14.480Z,54.51
2023-05-18T07:07:18.800Z,54.24
2023-05-18T07:11:22.006Z,53.56
2023-05-18T07:15:26.013Z,55.54
2023-05-18T07:19:29.057Z,56.49
2023-05-18T07:23:33.220Z,55.04
2023-05-18T07:27:35.961Z,57.76
2023-05-18T07:31:41.115Z,53.35
2023-05-18T07:35:43.970Z,53.24
2023-05-18T07:39:48.092Z,52.34
2023-05-18T07:43:51.113Z,55.36
2023-05-18T07:47:54.059Z,57.70
2023-05-18T07:51:57.427Z,53.29
2023-05-18T07:56:01.644Z,52.83
2023-05-18T08:00:06.480Z,59.36
2023-05-18T08:04:09.615Z,60.02
2023-05-18T08:08:15.277Z,52.33
2023-05-18T08:12:19.266Z,56.47
2023-05-18T08:16:21.938Z,50.97
2023-05-18T08:20:25.587Z,52.21
2023-05-18T08:24:28.240Z,51.08
2023-05-18T08:28:32.499Z,51.40
2023-05-18T08:32:37.002Z,52.37
2023-05-18T08:36:40.983Z,54.57
2023-05-18T08:40:51.455Z,55.60
2023-05-18T08:45:00.279Z,55.60
2023-05-18T08:49:03.982Z,53.18
2023-05-18T08:53:07.689Z,56.75
2023-05-18T08:57:10.756Z,51.78
2023-05-18T09:01:15.227Z,54.42
2023-05-18T09:05:18.798Z,52.77
2023-05-18T09:09:23.170Z,50.55
2023-05-18T09:13:27.132Z,53.27
2023-05-18T09:17:31.272Z,52.24
2023-05-18T09:21:34.030Z,50.35
2023-05-18T09:25:38.105Z,48.95
2023-05-18T09:29:54.532Z,52.36
2023-05-18T09:34:01.235Z,46.08
2023-05-18T09:38:05.338Z,47.65
2023-05-18T09:42:08.034Z,46.82
2023-05-18T09:46:12.238Z,47.60
2023-05-18T09:50:16.315Z,43.11
2023-05-18T09:54:19.208Z,45.83
2023-05-18T09:58:22.148Z,41.94
2023-05-18T10:02:26.238Z,40.64
2023-05-18T10:06:30.754Z,48.11
2023-05-18T10:10:33.556Z,45.26
2023-05-18T10:14:36.564Z,46.45
2023-05-18T10:18:39.777Z,43.53
2023-05-18T10:22:46.907Z,48.29
2023-05-18T10:26:52.758Z,41.43
2023-05-18T10:30:58.199Z,44.23
2023-05-18T10:35:01.193Z,49.70
2023-05-18T10:39:06.235Z,42.97
2023-05-18T10:43:09.028Z,45.20
2023-05-18T10:47:12.935Z,43.72
2023-05-18T10:51:16.266Z,41.53
2023-05-18T10:55:21.005Z,42.15
2023-05-18T10:59:24.230Z,47.89
2023-05-18T11:03:28.668Z,40.14
2023-05-18T11:07:33.926Z,46.19
2023-05-18T11:11:54.097Z,39.58
2023-05-18T11:16:05.479Z,39.09
2023-05-18T11:20:18.556Z,46.84
2023-05-18T11:24:33.290Z,47.69
2023-05-18T11:28:44.044Z,44.06
2023-05-18T11:32:52.557Z,42.54
2023-05-18T11:36:56.815Z,45.18
2023-05-18T11:41:00.880Z,45.52
2023-05-18T11:45:12.895Z,43.82
2023-05-18T11:49:18.276Z,47.08
2023-05-18T11:53:21.288Z,40.94
2023-05-18T11:57:26.603Z,48.45
2023-05-18T12:01:31.294Z,47.83
2023-05-18T12:05:35.822Z,42.45
2023-05-18T12:09:43.357Z,44.06
2023-05-18T12:13:47.182Z,41.31
2023-05-18T12:17:52.369Z,44.93
2023-05-18T12:21:56.702Z,43.49
2023-05-18T12:26:00.902Z,40.19
2023-05-18T12:30:03.723Z,49.00
2023-05-18T12:34:07.825Z,44.02
2023-05-18T12:38:11.722Z,41.40
2023-05-18T12:42:15.612Z,42.60
2023-05-18T12:46:18.545Z,39.42
2023-05-18T12:50:22.712Z,45.35
2023-05-18T12:54:29.271Z,47.57
2023-05-18T12:58:32.958Z,38.86
2023-05-18T13:02:37.221Z,42.16
2023-05-18T13:06:41.814Z,37.83
2023-05-18T13:10:45.749Z,39.16
2023-05-18T13:14:48.485Z,46.31
2023-05-18T13:18:57.286Z,39.76
2023-05-18T13:23:06.886Z,41.56
2023-05-18T13:27:09.620Z,47.81
2023-05-18T13:31:13.038Z,43.37
2023-05-18T13:35:15.962Z,41.50
2023-05-18T13:39:20.052Z,44.04
2023-05-18T13:43:22.812Z,40.76
2023-05-18T13:47:25.752Z,38.85
2023-05-18T13:51:28.461Z,41.21
2023-05-18T13:55:33.257Z,40.33
2023-05-18T13:59:36.869Z,40.81
2023-05-18T14:03:41.267Z,37.97
2023-05-18T14:07:45.057Z,39.21
2023-05-18T14:11:51.153Z,38.10
2023-05-18T14:15:56.058Z,39.59
2023-05-18T14:20:00.516Z,39.01
2023-05-18T14:24:07.750Z,37.75
2023-05-18T14:28:13.115Z,39.74
2023-05-18T14:32:16.592Z,41.47
2023-05-18T14:36:21.894Z,41.71
2023-05-18T14:40:25.367Z,39.84
2023-05-18T14:44:39.923Z,40.47
2023-05-18T14:48:43.047Z,39.43
2023-05-18T14:52:46.326Z,35.42
2023-05-18T14:56:50.077Z,38.51
2023-05-18T15:00:54.888Z,40.14
2023-05-18T15:04:58.582Z,40.49
2023-05-18T15:09:02.260Z,44.84
2023-05-18T15:13:05.498Z,42.90
2023-05-18T15:17:10.785Z,38.22
2023-05-18T15:21:15.512Z,43.02
2023-05-18T15:25:36.630Z,40.95
2023-05-18T15:29:39.782Z,42.19
2023-05-18T15:33:47.053Z,43.90
2023-05-18T15:37:50.861Z,39.15
2023-05-18T15:41:53.956Z,39.48
2023-05-18T15:45:59.383Z,43.87
2023-05-18T15:50:04.267Z,39.92
2023-05-18T15:54:07.682Z,43.46
2023-05-18T15:58:14.127Z,39.31
2023-05-18T16:02:18.448Z,40.66
2023-05-18T16:06:22.964Z,41.86
2023-05-18T16:10:26.430Z,42.71
2023-05-18T16:14:29.658Z,41.71
2023-05-18T16:18:33.812Z,43.85
2023-05-18T16:22:38.637Z,47.28
2023-05-18T16:26:42.208Z,44.44
2023-05-18T16:30:45.690Z,44.08
2023-05-18T16:34:48.948Z,49.13
2023-05-18T16:38:53.644Z,47.92
2023-05-18T16:43:16.242Z,45.38
2023-05-18T16:47:23.364Z,48.17
2023-05-18T16:51:28.934Z,43.23
2023-05-18T16:55:34.134Z,42.24
2023-05-18T16:59:37.362Z,42.87
2023-05-18T17:03:42.253Z,45.03
2023-05-18T17:07:52.717Z,48.27
2023-05-18T17:11:57.198Z,46.34
2023-05-18T17:16:00.484Z,52.12
2023-05-18T17:20:04.792Z,41.91
2023-05-18T17:24:08.589Z,40.44
2023-05-18T17:28:16.572Z,49.60
2023-05-18T17:32:20.218Z,45.40
2023-05-18T17:36:23.348Z,54.02
2023-05-18T17:40:29.449Z,54.10
2023-05-18T17:44:34.390Z,59.36
2023-05-18T17:48:37.703Z,55.94
2023-05-18T17:52:40.928Z,55.13
2023-05-18T17:56:45.029Z,50.14
2023-05-18T18:00:54.146Z,57.29
2023-05-18T18:04:57.110Z,55.68
2023-05-18T18:09:02.757Z,54.35
2023-05-18T18:13:12.630Z,55.07
2023-05-18T18:17:33.692Z,56.98
2023-05-18T18:21:37.047Z,62.17
2023-05-18T18:25:40.106Z,59.79
2023-05-18T18:29:43.173Z,63.45
2023-05-18T18:33:50.595Z,64.96
2023-05-18T18:37:57.074Z,66.72
2023-05-18T18:42:02.177Z,67.71
2023-05-18T18:46:05.505Z,68.94
2023-05-18T18:50:10.283Z,69.25
2023-05-18T18:54:14.438Z,68.82
2023-05-18T18:58:17.856Z,69.26
2023-05-18T19:02:21.519Z,71.06
2023-05-18T19:06:29.222Z,72.64
2023-05-18T19:10:34.103Z,75.85
2023-05-18T19:14:38.302Z,71.41
2023-05-18T19:18:42.138Z,75.01
2023-05-18T19:22:46.684Z,76.18
2023-05-18T19:26:49.961Z,74.15
2023-05-18T19:30:53.792Z,75.75
2023-05-18T19:35:02.956Z,77.38
2023-05-18T19:39:07.676Z,76.96
2023-05-18T19:43:11.250Z,80.64
2023-05-18T19:47:14.384Z,79.52
2023-05-18T19:51:23.231Z,80.65
2023-05-18T19:55:28.470Z,80.41
2023-05-18T19:59:36.820Z,80.65
2023-05-18T20:03:43.154Z,81.26
2023-05-18T20:07:47.176Z,82.24
2023-05-18T20:11:54.258Z,82.04
2023-05-18T20:16:00.369Z,83.23
2023-05-18T20:20:09.963Z,83.18
2023-05-18T20:24:17.179Z,85.84
2023-05-18T20:28:22.489Z,85.22
2023-05-18T20:32:26.201Z,85.58
2023-05-18T20:36:32.885Z,85.36
2023-05-18T20:40:38.199Z,87.38
2023-05-18T20:44:49.546Z,86.31
2023-05-18T20:48:55.507Z,82.37
2023-05-18T20:53:09.193Z,83.80
2023-05-18T20:57:13.739Z,85.25
2023-05-18T21:01:19.068Z,84.60
2023-05-18T21:05:29.594Z,84.97
2023-05-18T21:09:34.693Z,83.12
2023-05-18T21:13:37.941Z,85.45
2023-05-18T21:17:43.422Z,86.27
2023-05-18T21:21:46.932Z,86.85
2023-05-18T21:25:50.376Z,87.15
2023-05-18T21:29:53.734Z,84.65
2023-05-18T21:33:58.457Z,85.01
2023-05-18T21:38:02.121Z,87.63
2023-05-18T21:42:05.774Z,88.42
2023-05-18T21:46:09.612Z,87.49
2023-05-18T21:50:15.496Z,88.27
2023-05-18T21:54:18.791Z,84.62
2023-05-18T21:58:22.489Z,83.85
2023-05-18T22:02:25.742Z,83.90
2023-05-18T22:06:31.331Z,87.69
2023-05-18T22:10:36.800Z,86.66
2023-05-18T22:14:42.776Z,85.73
2023-05-18T22:18:48.194Z,84.06
2023-05-18T22:22:53.257Z,86.45
2023-05-18T22:26:56.983Z,84.91
2023-05-18T22:31:00.045Z,89.72
2023-05-18T22:35:04.361Z,87.01
2023-05-18T22:39:11.213Z,89.31
2023-05-18T22:43:14.394Z,89.98
2023-05-18T22:47:21.648Z,88.59
2023-05-18T22:51:26.469Z,87.78
2023-05-18T22:55:31.375Z,85.18
2023-05-18T22:59:34.627Z,89.81
2023-05-18T23:03:37.845Z,89.49
2023-05-18T23:07:41.981Z,90.80
2023-05-18T23:11:48.663Z,90.34
2023-05-18T23:15:56.338Z,89.94
2023-05-18T23:20:00.304Z,89.01
2023-05-18T23:24:03.218Z,91.63
2023-05-18T23:28:07.820Z,91.57
2023-05-18T23:32:11.081Z,90.66
2023-05-18T23:36:16.203Z,89.36
2023-05-18T23:40:20.456Z,90.83
2023-05-18T23:44:25.706Z,91.09
2023-05-18T23:48:31.163Z,89.86
2023-05-18T23:52:37.308Z,89.01
2023-05-18T23:56:41.198Z,91.80
